DAL6604 PHNL-RJOO
Flight info
| Callsign | DAL6604 |
|---|---|
| Flight time | N/A |
| Altitude | 38000 |
| Route | KEOLA3 LILIA DCT DOGIF DCT 26N168W 300008N1800000E 32N172E/N0479F400 34N162E 35N152E SEALS OTR13 LAPIL IPROS Y816 LIGNI XAC SZE GAKKI KOHWA OHDAI |
| Aircraft | A359/H-SDE2E3GHIJ3J4J5LM1ORWXY/LB1D1 |
Departure
| Time | 2026-05-04 11:20 |
|---|---|
| Airport | Daniel K. Inouye International Airport (PHNL) |
Arrival
| Time | N/A |
|---|---|
| Airport | Osaka Itami International Airport (RJOO) |
| Time | Latitude | Longitude | Altitude | Speed | Heading |
|---|---|---|---|---|---|
| 2026-05-04 10:59 | 21.32888 | -157.92324 | 30 ft | 0 kts | 319° |
| 2026-05-04 11:10 | 21.32843 | -157.92256 | 29 ft | 4 kts | 243° |
| 2026-05-04 11:12 | 21.32871 | -157.92236 | 30 ft | 0 kts | 189° |
| 2026-05-04 11:14 | 21.32870 | -157.92236 | 30 ft | 2 kts | 189° |
| 2026-05-04 11:16 | 21.32100 | -157.91973 | 30 ft | 20 kts | 149° |
| 2026-05-04 11:16 | 21.31976 | -157.91894 | 30 ft | 21 kts | 149° |
| 2026-05-04 11:16 | 21.31865 | -157.91828 | 30 ft | 14 kts | 161° |
| 2026-05-04 11:17 | 21.31778 | -157.91875 | 30 ft | 21 kts | 230° |
| 2026-05-04 11:17 | 21.31677 | -157.92014 | 30 ft | 25 kts | 232° |
| 2026-05-04 11:19 | 21.31380 | -157.92681 | 30 ft | 14 kts | 342° |
| 2026-05-04 11:19 | 21.31447 | -157.92634 | 30 ft | 12 kts | 52° |
| 2026-05-04 11:19 | 21.31566 | -157.92471 | 30 ft | 56 kts | 52° |
| 2026-05-04 11:19 | 21.31925 | -157.91963 | 30 ft | 113 kts | 53° |
| 2026-05-04 11:20 | 21.32508 | -157.91153 | 56 ft | 156 kts | 50° |
| 2026-05-04 11:20 | 21.33058 | -157.90269 | 861 ft | 129 kts | 65° |
| 2026-05-04 11:20 | 21.33132 | -157.89346 | 1403 ft | 127 kts | 102° |
| 2026-05-04 11:20 | 21.32549 | -157.88545 | 1648 ft | 155 kts | 138° |
| 2026-05-04 11:22 | 21.22631 | -157.87730 | 3999 ft | 276 kts | 217° |
| 2026-05-04 11:22 | 21.21266 | -157.89217 | 4575 ft | 284 kts | 230° |
| 2026-05-04 11:23 | 21.20347 | -157.91083 | 5297 ft | 285 kts | 254° |
| 2026-05-04 11:23 | 21.20255 | -157.93182 | 6098 ft | 282 kts | 276° |
| 2026-05-04 11:24 | 21.22250 | -158.05248 | 9946 ft | 298 kts | 280° |
| 2026-05-04 11:25 | 21.22636 | -158.07467 | 10376 ft | 309 kts | 280° |
| 2026-05-04 11:25 | 21.23040 | -158.09794 | 10656 ft | 326 kts | 280° |
| 2026-05-04 11:25 | 21.23459 | -158.12206 | 10916 ft | 341 kts | 280° |
| 2026-05-04 11:26 | 21.24357 | -158.17385 | 11560 ft | 362 kts | 280° |
| 2026-05-04 11:27 | 21.27653 | -158.36459 | 15227 ft | 377 kts | 280° |
| 2026-05-04 11:28 | 21.28131 | -158.39237 | 15631 ft | 381 kts | 280° |
| 2026-05-04 11:28 | 21.28610 | -158.42024 | 16175 ft | 380 kts | 280° |
| 2026-05-04 11:28 | 21.29082 | -158.44775 | 16651 ft | 380 kts | 280° |
| 2026-05-04 11:28 | 21.29580 | -158.47565 | 17170 ft | 380 kts | 282° |
| 2026-05-04 11:29 | 21.30336 | -158.50286 | 17620 ft | 383 kts | 291° |
| 2026-05-04 11:29 | 21.31353 | -158.52934 | 18078 ft | 384 kts | 293° |
| 2026-05-04 11:29 | 21.32420 | -158.55561 | 18565 ft | 384 kts | 293° |
| 2026-05-04 11:29 | 21.33494 | -158.58200 | 18926 ft | 387 kts | 293° |
| 2026-05-04 11:31 | 21.41153 | -158.77208 | 21669 ft | 404 kts | 293° |
| 2026-05-04 11:33 | 21.49079 | -158.96990 | 24448 ft | 418 kts | 292° |
| 2026-05-04 11:33 | 21.50231 | -158.99872 | 24816 ft | 421 kts | 292° |
| 2026-05-04 11:33 | 21.51388 | -159.02767 | 25163 ft | 424 kts | 292° |
| 2026-05-04 11:34 | 21.52556 | -159.05692 | 25501 ft | 427 kts | 292° |
| 2026-05-04 11:34 | 21.53727 | -159.08627 | 25929 ft | 428 kts | 292° |
| 2026-05-04 11:34 | 21.54903 | -159.11577 | 26314 ft | 431 kts | 292° |
| 2026-05-04 11:34 | 21.56084 | -159.14539 | 26736 ft | 432 kts | 292° |
| 2026-05-04 11:35 | 21.57270 | -159.17517 | 27110 ft | 434 kts | 292° |
| 2026-05-04 11:35 | 21.58448 | -159.20476 | 27485 ft | 436 kts | 292° |
| 2026-05-04 11:35 | 21.59645 | -159.23485 | 27826 ft | 439 kts | 292° |
| 2026-05-04 11:35 | 21.60850 | -159.26515 | 28141 ft | 443 kts | 292° |
| 2026-05-04 11:36 | 21.62064 | -159.29571 | 28506 ft | 445 kts | 292° |
| 2026-05-04 11:36 | 21.63285 | -159.32646 | 28834 ft | 448 kts | 292° |
| 2026-05-04 11:36 | 21.64512 | -159.35739 | 29191 ft | 450 kts | 292° |
| 2026-05-04 11:36 | 21.65725 | -159.38797 | 29596 ft | 451 kts | 292° |
| 2026-05-04 11:37 | 21.66960 | -159.41914 | 29919 ft | 453 kts | 292° |
| 2026-05-04 11:37 | 21.68201 | -159.45046 | 30157 ft | 458 kts | 292° |
| 2026-05-04 11:37 | 21.69453 | -159.48210 | 30409 ft | 460 kts | 292° |
| 2026-05-04 11:37 | 21.70710 | -159.51387 | 30723 ft | 461 kts | 292° |
| 2026-05-04 11:38 | 21.71966 | -159.54565 | 31057 ft | 461 kts | 292° |
| 2026-05-04 11:38 | 21.73221 | -159.57743 | 31354 ft | 463 kts | 292° |
| 2026-05-04 11:38 | 21.74469 | -159.60905 | 31583 ft | 465 kts | 292° |
| 2026-05-04 11:38 | 21.75735 | -159.64114 | 31833 ft | 467 kts | 292° |
| 2026-05-04 11:39 | 21.77006 | -159.67339 | 32105 ft | 467 kts | 292° |
| 2026-05-04 11:39 | 21.78279 | -159.70569 | 32342 ft | 469 kts | 292° |
| 2026-05-04 11:40 | 21.85915 | -159.89995 | 34309 ft | 463 kts | 292° |
| 2026-05-04 11:41 | 21.87167 | -159.93189 | 34549 ft | 463 kts | 292° |
| 2026-05-04 11:41 | 21.88403 | -159.96343 | 34795 ft | 462 kts | 292° |
| 2026-05-04 11:41 | 21.89650 | -159.99527 | 35050 ft | 461 kts | 292° |
| 2026-05-04 11:41 | 21.90896 | -160.02712 | 35299 ft | 460 kts | 292° |
| 2026-05-04 11:42 | 21.92135 | -160.05881 | 35535 ft | 458 kts | 292° |
| 2026-05-04 11:42 | 21.93371 | -160.09044 | 35790 ft | 457 kts | 291° |
| 2026-05-04 11:42 | 21.94605 | -160.12203 | 36018 ft | 456 kts | 291° |
| 2026-05-04 11:42 | 21.95835 | -160.15352 | 36245 ft | 455 kts | 291° |
| 2026-05-04 11:43 | 21.97060 | -160.18495 | 36461 ft | 455 kts | 291° |
| 2026-05-04 11:43 | 21.98283 | -160.21633 | 36652 ft | 454 kts | 291° |
| 2026-05-04 11:43 | 21.99507 | -160.24774 | 36833 ft | 454 kts | 291° |
| 2026-05-04 11:43 | 22.00709 | -160.27862 | 37029 ft | 453 kts | 291° |
| 2026-05-04 11:44 | 22.01927 | -160.30994 | 37207 ft | 452 kts | 291° |
| 2026-05-04 11:44 | 22.03143 | -160.34121 | 37397 ft | 451 kts | 291° |
| 2026-05-04 11:44 | 22.04357 | -160.37246 | 37567 ft | 451 kts | 291° |
| 2026-05-04 11:44 | 22.05567 | -160.40362 | 37741 ft | 450 kts | 291° |
| 2026-05-04 11:45 | 22.06776 | -160.43479 | 37911 ft | 449 kts | 291° |
| 2026-05-04 11:45 | 22.07980 | -160.46585 | 38072 ft | 448 kts | 291° |
| 2026-05-04 11:45 | 22.09184 | -160.49691 | 38135 ft | 450 kts | 291° |
| 2026-05-04 11:46 | 22.11607 | -160.55953 | 38134 ft | 454 kts | 291° |
| 2026-05-04 11:46 | 22.14025 | -160.62208 | 38135 ft | 454 kts | 291° |
| 2026-05-04 11:47 | 22.16457 | -160.68505 | 38132 ft | 454 kts | 291° |
| 2026-05-04 11:47 | 22.18867 | -160.74758 | 38140 ft | 454 kts | 291° |
| 2026-05-04 11:48 | 22.21290 | -160.81049 | 38140 ft | 454 kts | 291° |
| 2026-05-04 11:48 | 22.23713 | -160.87351 | 38140 ft | 454 kts | 290° |
| 2026-05-04 11:49 | 22.26120 | -160.93619 | 38139 ft | 454 kts | 290° |
| 2026-05-04 11:49 | 22.28538 | -160.99926 | 38148 ft | 454 kts | 290° |
| 2026-05-04 11:50 | 22.30945 | -161.06209 | 38140 ft | 451 kts | 290° |
| 2026-05-04 11:50 | 22.33341 | -161.12474 | 38141 ft | 451 kts | 290° |
| 2026-05-04 11:51 | 22.35715 | -161.18691 | 38142 ft | 451 kts | 290° |
| 2026-05-04 11:51 | 22.38108 | -161.24963 | 38143 ft | 450 kts | 290° |
| 2026-05-04 11:52 | 22.40491 | -161.31221 | 38145 ft | 450 kts | 290° |
| 2026-05-04 11:52 | 22.42877 | -161.37492 | 38143 ft | 450 kts | 290° |
| 2026-05-04 11:53 | 22.45256 | -161.43756 | 38139 ft | 451 kts | 290° |
| 2026-05-04 11:53 | 22.47620 | -161.49987 | 38141 ft | 451 kts | 290° |
| 2026-05-04 11:55 | 22.56544 | -161.75300 | 38146 ft | 450 kts | 288° |
| 2026-05-04 11:56 | 22.58680 | -161.81682 | 38145 ft | 451 kts | 288° |
| 2026-05-04 11:56 | 22.60832 | -161.88068 | 38149 ft | 451 kts | 288° |
| 2026-05-04 11:57 | 22.62970 | -161.94408 | 38151 ft | 451 kts | 288° |
| 2026-05-04 11:57 | 22.65119 | -162.00795 | 38145 ft | 451 kts | 288° |
| 2026-05-04 11:58 | 22.67265 | -162.07189 | 38150 ft | 451 kts | 288° |
| 2026-05-04 11:58 | 22.69412 | -162.13591 | 38145 ft | 451 kts | 288° |
| 2026-05-04 11:59 | 22.71539 | -162.19945 | 38147 ft | 451 kts | 288° |
| 2026-05-04 11:59 | 22.73678 | -162.26345 | 38149 ft | 451 kts | 288° |
| 2026-05-04 12:00 | 22.75812 | -162.32738 | 38155 ft | 450 kts | 288° |
| 2026-05-04 12:00 | 22.77937 | -162.39114 | 38157 ft | 449 kts | 288° |
| 2026-05-04 12:01 | 22.80055 | -162.45480 | 38155 ft | 449 kts | 288° |
| 2026-05-04 12:02 | 22.87445 | -162.67766 | 38154 ft | 450 kts | 288° |
| 2026-05-04 12:03 | 22.89557 | -162.74155 | 38154 ft | 450 kts | 288° |
| 2026-05-04 12:03 | 22.91665 | -162.80545 | 38154 ft | 450 kts | 288° |
| 2026-05-04 12:04 | 22.93758 | -162.86894 | 38157 ft | 450 kts | 288° |
| 2026-05-04 12:04 | 22.95862 | -162.93290 | 38157 ft | 450 kts | 288° |
| 2026-05-04 12:05 | 22.97965 | -162.99693 | 38157 ft | 450 kts | 288° |
| 2026-05-04 12:05 | 23.00070 | -163.06111 | 38157 ft | 450 kts | 288° |
| 2026-05-04 12:06 | 23.02158 | -163.12487 | 38157 ft | 451 kts | 288° |
| 2026-05-04 12:06 | 23.04256 | -163.18903 | 38157 ft | 451 kts | 288° |
| 2026-05-04 12:07 | 23.06355 | -163.25334 | 38159 ft | 451 kts | 288° |
| 2026-05-04 12:07 | 23.08437 | -163.31721 | 38156 ft | 451 kts | 288° |
| 2026-05-04 12:08 | 23.10527 | -163.38143 | 38159 ft | 451 kts | 288° |
| 2026-05-04 12:08 | 23.12620 | -163.44583 | 38162 ft | 452 kts | 288° |
| 2026-05-04 12:09 | 23.14709 | -163.51022 | 38162 ft | 452 kts | 288° |
| 2026-05-04 12:09 | 23.16796 | -163.57464 | 38165 ft | 452 kts | 288° |
| 2026-05-04 12:10 | 23.18865 | -163.63862 | 38165 ft | 452 kts | 288° |
| 2026-05-04 12:10 | 23.20949 | -163.70316 | 38173 ft | 452 kts | 288° |
| 2026-05-04 12:11 | 23.23029 | -163.76768 | 38164 ft | 451 kts | 288° |
| 2026-05-04 12:11 | 23.25166 | -163.83179 | 38167 ft | 452 kts | 291° |
| 2026-05-04 12:12 | 23.28326 | -163.89073 | 38167 ft | 455 kts | 302° |
| 2026-05-04 12:12 | 23.32065 | -163.94645 | 38173 ft | 456 kts | 304° |
| 2026-05-04 12:14 | 23.46696 | -164.15826 | 38176 ft | 456 kts | 304° |
| 2026-05-04 12:15 | 23.50471 | -164.21339 | 38176 ft | 456 kts | 304° |
| 2026-05-04 12:15 | 23.54265 | -164.26884 | 38179 ft | 456 kts | 304° |
| 2026-05-04 12:16 | 23.58066 | -164.32444 | 38206 ft | 456 kts | 304° |
| 2026-05-04 12:16 | 23.61851 | -164.37986 | 38184 ft | 455 kts | 304° |
| 2026-05-04 12:17 | 23.65627 | -164.43522 | 38158 ft | 455 kts | 303° |
| 2026-05-04 12:17 | 23.69377 | -164.49026 | 38178 ft | 455 kts | 303° |
| 2026-05-04 12:18 | 23.73155 | -164.54577 | 38189 ft | 455 kts | 303° |
| 2026-05-04 12:18 | 23.76925 | -164.60122 | 38188 ft | 455 kts | 303° |
| 2026-05-04 12:19 | 23.80695 | -164.65674 | 38191 ft | 455 kts | 303° |
| 2026-05-04 12:19 | 23.84462 | -164.71226 | 38169 ft | 455 kts | 303° |
| 2026-05-04 12:20 | 23.88204 | -164.76748 | 38194 ft | 455 kts | 303° |
| 2026-05-04 12:20 | 23.91973 | -164.82317 | 38177 ft | 455 kts | 303° |
| 2026-05-04 12:21 | 23.95734 | -164.87879 | 38196 ft | 454 kts | 303° |
| 2026-05-04 12:21 | 23.99493 | -164.93445 | 38199 ft | 454 kts | 303° |
| 2026-05-04 12:22 | 24.03241 | -164.99000 | 38189 ft | 454 kts | 303° |
| 2026-05-04 12:22 | 24.06986 | -165.04558 | 38189 ft | 454 kts | 303° |
| 2026-05-04 12:23 | 24.10715 | -165.10098 | 38197 ft | 454 kts | 303° |
| 2026-05-04 12:23 | 24.14465 | -165.15677 | 38189 ft | 454 kts | 303° |
| 2026-05-04 12:24 | 24.18209 | -165.21251 | 38197 ft | 454 kts | 303° |
| 2026-05-04 12:24 | 24.21956 | -165.26837 | 38197 ft | 454 kts | 303° |
| 2026-05-04 12:25 | 24.25701 | -165.32425 | 38197 ft | 454 kts | 303° |
| 2026-05-04 12:25 | 24.29421 | -165.37983 | 38196 ft | 454 kts | 303° |
| 2026-05-04 12:26 | 24.33160 | -165.43575 | 38195 ft | 454 kts | 303° |
| 2026-05-04 12:26 | 24.36895 | -165.49169 | 38206 ft | 454 kts | 303° |
| 2026-05-04 12:27 | 24.40606 | -165.54733 | 38200 ft | 454 kts | 303° |
| 2026-05-04 12:27 | 24.44333 | -165.60327 | 38200 ft | 454 kts | 303° |
| 2026-05-04 12:28 | 24.48062 | -165.65929 | 38201 ft | 454 kts | 303° |
| 2026-05-04 12:28 | 24.51789 | -165.71536 | 38201 ft | 454 kts | 303° |
| 2026-05-04 12:29 | 24.55508 | -165.77137 | 38201 ft | 454 kts | 303° |
| 2026-05-04 12:29 | 24.59200 | -165.82705 | 38206 ft | 454 kts | 303° |
| 2026-05-04 12:30 | 24.62917 | -165.88315 | 38205 ft | 454 kts | 303° |
| 2026-05-04 12:30 | 24.66631 | -165.93928 | 38215 ft | 454 kts | 303° |
| 2026-05-04 12:31 | 24.70351 | -165.99556 | 38214 ft | 454 kts | 303° |
| 2026-05-04 12:31 | 24.74066 | -166.05184 | 38208 ft | 454 kts | 303° |
| 2026-05-04 12:32 | 24.79608 | -166.13590 | 38213 ft | 454 kts | 303° |
| 2026-05-04 12:33 | 24.83315 | -166.19222 | 38220 ft | 454 kts | 303° |
| 2026-05-04 12:33 | 24.87023 | -166.24861 | 38212 ft | 454 kts | 303° |
| 2026-05-04 12:34 | 24.90732 | -166.30509 | 38214 ft | 454 kts | 303° |
| 2026-05-04 12:34 | 24.94414 | -166.36122 | 38214 ft | 454 kts | 303° |
| 2026-05-04 12:35 | 24.98125 | -166.41786 | 38216 ft | 454 kts | 303° |
| 2026-05-04 12:35 | 25.01822 | -166.47437 | 38230 ft | 454 kts | 303° |
| 2026-05-04 12:36 | 25.05492 | -166.53051 | 38221 ft | 453 kts | 303° |
| 2026-05-04 12:36 | 25.09181 | -166.58701 | 38219 ft | 453 kts | 303° |
| 2026-05-04 12:37 | 25.12868 | -166.64355 | 38219 ft | 453 kts | 303° |
| 2026-05-04 12:37 | 25.16527 | -166.69973 | 38224 ft | 453 kts | 303° |
| 2026-05-04 12:38 | 25.20201 | -166.75621 | 38225 ft | 453 kts | 303° |
| 2026-05-04 12:38 | 25.23876 | -166.81276 | 38225 ft | 453 kts | 303° |
| 2026-05-04 12:39 | 25.27548 | -166.86935 | 38221 ft | 453 kts | 303° |
| 2026-05-04 12:39 | 25.31218 | -166.92596 | 38227 ft | 453 kts | 303° |
| 2026-05-04 12:40 | 25.34864 | -166.98229 | 38230 ft | 453 kts | 303° |
| 2026-05-04 12:40 | 25.38531 | -167.03898 | 38235 ft | 453 kts | 303° |
| 2026-05-04 12:41 | 25.42187 | -167.09558 | 38226 ft | 452 kts | 303° |
| 2026-05-04 12:41 | 25.45843 | -167.15225 | 38233 ft | 451 kts | 303° |
| 2026-05-04 12:42 | 25.49487 | -167.20881 | 38230 ft | 451 kts | 303° |
| 2026-05-04 12:42 | 25.53136 | -167.26550 | 38233 ft | 451 kts | 303° |
| 2026-05-04 12:43 | 25.56754 | -167.32178 | 38233 ft | 451 kts | 303° |
| 2026-05-04 12:43 | 25.60393 | -167.37847 | 38238 ft | 451 kts | 303° |
| 2026-05-04 12:44 | 25.64033 | -167.43522 | 38235 ft | 451 kts | 303° |
| 2026-05-04 12:44 | 25.67668 | -167.49198 | 38236 ft | 451 kts | 303° |
| 2026-05-04 12:45 | 25.71278 | -167.54841 | 38238 ft | 451 kts | 303° |
| 2026-05-04 12:45 | 25.74911 | -167.60526 | 38243 ft | 451 kts | 303° |
| 2026-05-04 12:46 | 25.78538 | -167.66211 | 38242 ft | 450 kts | 303° |
| 2026-05-04 12:46 | 25.82155 | -167.71885 | 38241 ft | 450 kts | 303° |
| 2026-05-04 12:47 | 25.85749 | -167.77531 | 38241 ft | 450 kts | 303° |
| 2026-05-04 12:47 | 25.89360 | -167.83210 | 38246 ft | 450 kts | 303° |
| 2026-05-04 12:48 | 25.92968 | -167.88892 | 38241 ft | 450 kts | 303° |
| 2026-05-04 12:48 | 25.96583 | -167.94592 | 38240 ft | 450 kts | 303° |
| 2026-05-04 12:49 | 25.99989 | -168.00376 | 38247 ft | 448 kts | 296° |
| 2026-05-04 12:49 | 26.02633 | -168.06662 | 38240 ft | 448 kts | 292° |
| 2026-05-04 12:50 | 26.05094 | -168.12973 | 38244 ft | 448 kts | 292° |
| 2026-05-04 12:50 | 26.07545 | -168.19349 | 38246 ft | 448 kts | 292° |
| 2026-05-04 12:51 | 26.10002 | -168.25718 | 38245 ft | 448 kts | 292° |
| 2026-05-04 12:51 | 26.12466 | -168.32089 | 38251 ft | 447 kts | 292° |
| 2026-05-04 12:52 | 26.14912 | -168.38418 | 38232 ft | 447 kts | 292° |
| 2026-05-04 12:52 | 26.17370 | -168.44785 | 38251 ft | 447 kts | 292° |
| 2026-05-04 12:53 | 26.19827 | -168.51162 | 38252 ft | 447 kts | 292° |
| 2026-05-04 12:53 | 26.22280 | -168.57539 | 38251 ft | 447 kts | 292° |
| 2026-05-04 12:54 | 26.24716 | -168.63882 | 38246 ft | 447 kts | 292° |
| 2026-05-04 12:54 | 26.27166 | -168.70269 | 38247 ft | 447 kts | 292° |
| 2026-05-04 12:55 | 26.29613 | -168.76661 | 38250 ft | 448 kts | 292° |
| 2026-05-04 12:55 | 26.32043 | -168.83018 | 38251 ft | 448 kts | 292° |
| 2026-05-04 12:56 | 26.34485 | -168.89417 | 38256 ft | 448 kts | 292° |
| 2026-05-04 12:56 | 26.36925 | -168.95818 | 38251 ft | 448 kts | 292° |
| 2026-05-04 12:57 | 26.39361 | -169.02223 | 38254 ft | 448 kts | 292° |
| 2026-05-04 12:57 | 26.41779 | -169.08588 | 38252 ft | 448 kts | 292° |
| 2026-05-04 12:58 | 26.44208 | -169.14992 | 38254 ft | 448 kts | 292° |
| 2026-05-04 12:58 | 26.46631 | -169.21392 | 38250 ft | 448 kts | 292° |
| 2026-05-04 12:59 | 26.49057 | -169.27809 | 38250 ft | 448 kts | 292° |
| 2026-05-04 12:59 | 26.51469 | -169.34198 | 38254 ft | 449 kts | 292° |
| 2026-05-04 13:00 | 26.53890 | -169.40625 | 38251 ft | 449 kts | 292° |
| 2026-05-04 13:00 | 26.56311 | -169.47058 | 38263 ft | 449 kts | 292° |
| 2026-05-04 13:01 | 26.58322 | -169.52413 | 38243 ft | 450 kts | 292° |
| 2026-05-04 13:01 | 26.61138 | -169.59921 | 38248 ft | 450 kts | 292° |
| 2026-05-04 13:02 | 26.63163 | -169.65329 | 38264 ft | 450 kts | 292° |
| 2026-05-04 13:02 | 26.65564 | -169.71751 | 38247 ft | 450 kts | 292° |
| 2026-05-04 13:03 | 26.67981 | -169.78226 | 38251 ft | 450 kts | 292° |
| 2026-05-04 13:03 | 26.70391 | -169.84693 | 38255 ft | 450 kts | 292° |
| 2026-05-04 13:04 | 26.72782 | -169.91118 | 38260 ft | 450 kts | 292° |
| 2026-05-04 13:04 | 26.75187 | -169.97594 | 38261 ft | 450 kts | 292° |
| 2026-05-04 13:05 | 26.77590 | -170.04074 | 38263 ft | 450 kts | 292° |
| 2026-05-04 13:05 | 26.79989 | -170.10554 | 38262 ft | 450 kts | 291° |
| 2026-05-04 13:06 | 26.82384 | -170.17032 | 38251 ft | 450 kts | 291° |
| 2026-05-04 13:06 | 26.84780 | -170.23528 | 38251 ft | 453 kts | 292° |
| 2026-05-04 13:07 | 26.87187 | -170.30061 | 38251 ft | 454 kts | 292° |
| 2026-05-04 13:07 | 26.89596 | -170.36612 | 38265 ft | 455 kts | 292° |
| 2026-05-04 13:08 | 26.91988 | -170.43126 | 38267 ft | 455 kts | 292° |
| 2026-05-04 13:08 | 26.94390 | -170.49680 | 38259 ft | 454 kts | 292° |
| 2026-05-04 13:09 | 26.96791 | -170.56242 | 38267 ft | 455 kts | 292° |
| 2026-05-04 13:09 | 26.99190 | -170.62808 | 38270 ft | 455 kts | 292° |
| 2026-05-04 13:10 | 27.01577 | -170.69355 | 38269 ft | 455 kts | 292° |
| 2026-05-04 13:10 | 27.03973 | -170.75935 | 38268 ft | 455 kts | 292° |
| 2026-05-04 13:11 | 27.06367 | -170.82521 | 38256 ft | 455 kts | 292° |
| 2026-05-04 13:11 | 27.08757 | -170.89109 | 38274 ft | 455 kts | 292° |
| 2026-05-04 13:12 | 27.11128 | -170.95655 | 38262 ft | 455 kts | 292° |
| 2026-05-04 13:12 | 27.13510 | -171.02243 | 38262 ft | 455 kts | 292° |
| 2026-05-04 13:13 | 27.15889 | -171.08835 | 38266 ft | 455 kts | 292° |
| 2026-05-04 13:13 | 27.18268 | -171.15435 | 38262 ft | 455 kts | 292° |
| 2026-05-04 13:14 | 27.20640 | -171.22029 | 38283 ft | 455 kts | 292° |
| 2026-05-04 13:14 | 27.22996 | -171.28592 | 38260 ft | 456 kts | 292° |
| 2026-05-04 13:15 | 27.25370 | -171.35213 | 38275 ft | 457 kts | 292° |
| 2026-05-04 13:15 | 27.27744 | -171.41846 | 38276 ft | 457 kts | 292° |
| 2026-05-04 13:16 | 27.30115 | -171.48483 | 38258 ft | 457 kts | 292° |
| 2026-05-04 13:16 | 27.32480 | -171.55116 | 38272 ft | 457 kts | 292° |
| 2026-05-04 13:17 | 27.34844 | -171.61756 | 38281 ft | 457 kts | 292° |
| 2026-05-04 13:17 | 27.37205 | -171.68402 | 38276 ft | 457 kts | 292° |
| 2026-05-04 13:18 | 27.39548 | -171.75007 | 38280 ft | 457 kts | 292° |
| 2026-05-04 13:18 | 27.41910 | -171.81675 | 38278 ft | 458 kts | 292° |
| 2026-05-04 13:19 | 27.44265 | -171.88339 | 38281 ft | 458 kts | 292° |
| 2026-05-04 13:19 | 27.46616 | -171.95002 | 38278 ft | 458 kts | 292° |
| 2026-05-04 13:20 | 27.48963 | -172.01663 | 38286 ft | 458 kts | 292° |
| 2026-05-04 13:20 | 27.51305 | -172.08327 | 38285 ft | 458 kts | 292° |
| 2026-05-04 13:21 | 27.53632 | -172.14954 | 38284 ft | 458 kts | 292° |
| 2026-05-04 13:21 | 27.55975 | -172.21642 | 38292 ft | 457 kts | 292° |
| 2026-05-04 13:22 | 27.58306 | -172.28308 | 38277 ft | 456 kts | 291° |
| 2026-05-04 13:22 | 27.60629 | -172.34963 | 38274 ft | 455 kts | 291° |
| 2026-05-04 13:23 | 27.62935 | -172.41581 | 38288 ft | 455 kts | 292° |
| 2026-05-04 13:23 | 27.65254 | -172.48247 | 38286 ft | 456 kts | 291° |
| 2026-05-04 13:24 | 27.67566 | -172.54904 | 38289 ft | 456 kts | 291° |
| 2026-05-04 13:24 | 27.69859 | -172.61521 | 38285 ft | 456 kts | 291° |
| 2026-05-04 13:25 | 27.73317 | -172.71521 | 38291 ft | 456 kts | 291° |
| 2026-05-04 13:25 | 27.75622 | -172.78201 | 38281 ft | 456 kts | 291° |
| 2026-05-04 13:26 | 27.77922 | -172.84879 | 38289 ft | 456 kts | 291° |
| 2026-05-04 13:26 | 27.80202 | -172.91511 | 38289 ft | 456 kts | 291° |
| 2026-05-04 13:27 | 27.82494 | -172.98189 | 38287 ft | 456 kts | 291° |
| 2026-05-04 13:27 | 27.84786 | -173.04878 | 38287 ft | 456 kts | 291° |
| 2026-05-04 13:28 | 27.87079 | -173.11585 | 38287 ft | 456 kts | 291° |
| 2026-05-04 13:28 | 27.89349 | -173.18237 | 38286 ft | 456 kts | 291° |
| 2026-05-04 13:29 | 27.91632 | -173.24938 | 38300 ft | 456 kts | 291° |
| 2026-05-04 13:29 | 27.93912 | -173.31645 | 38290 ft | 456 kts | 291° |
| 2026-05-04 13:30 | 27.96171 | -173.38300 | 38294 ft | 456 kts | 291° |
| 2026-05-04 13:30 | 27.98437 | -173.44987 | 38290 ft | 455 kts | 291° |
| 2026-05-04 13:31 | 28.00704 | -173.51693 | 38288 ft | 456 kts | 291° |
| 2026-05-04 13:31 | 28.02967 | -173.58398 | 38290 ft | 456 kts | 291° |
| 2026-05-04 13:32 | 28.05231 | -173.65115 | 38290 ft | 456 kts | 291° |
| 2026-05-04 13:32 | 28.07480 | -173.71803 | 38293 ft | 456 kts | 291° |
| 2026-05-04 13:33 | 28.09734 | -173.78521 | 38293 ft | 456 kts | 291° |
| 2026-05-04 13:33 | 28.11985 | -173.85237 | 38293 ft | 456 kts | 291° |
| 2026-05-04 13:34 | 28.14235 | -173.91965 | 38285 ft | 456 kts | 291° |
| 2026-05-04 13:34 | 28.16481 | -173.98696 | 38290 ft | 456 kts | 291° |
| 2026-05-04 13:35 | 28.19832 | -174.08758 | 38289 ft | 456 kts | 291° |
| 2026-05-04 13:36 | 28.22068 | -174.15491 | 38290 ft | 456 kts | 291° |
| 2026-05-04 13:36 | 28.24304 | -174.22235 | 38293 ft | 456 kts | 291° |
| 2026-05-04 13:37 | 28.26528 | -174.28952 | 38292 ft | 456 kts | 291° |
| 2026-05-04 13:37 | 28.28758 | -174.35706 | 38290 ft | 457 kts | 291° |
| 2026-05-04 13:38 | 28.30988 | -174.42468 | 38298 ft | 457 kts | 291° |
| 2026-05-04 13:38 | 28.33213 | -174.49231 | 38298 ft | 457 kts | 291° |
| 2026-05-04 13:39 | 28.35432 | -174.55988 | 38302 ft | 457 kts | 291° |
| 2026-05-04 13:39 | 28.37639 | -174.62719 | 38302 ft | 457 kts | 291° |
| 2026-05-04 13:40 | 28.39855 | -174.69494 | 38296 ft | 457 kts | 291° |
| 2026-05-04 13:40 | 28.42074 | -174.76288 | 38304 ft | 458 kts | 291° |
| 2026-05-04 13:41 | 28.44286 | -174.83078 | 38300 ft | 458 kts | 291° |
| 2026-05-04 13:41 | 28.46481 | -174.89826 | 38303 ft | 458 kts | 291° |
| 2026-05-04 13:42 | 28.49787 | -175.00014 | 38305 ft | 458 kts | 291° |
| 2026-05-04 13:42 | 28.51992 | -175.06825 | 38302 ft | 458 kts | 291° |
| 2026-05-04 13:43 | 28.54190 | -175.13628 | 38304 ft | 458 kts | 291° |
| 2026-05-04 13:43 | 28.56372 | -175.20395 | 38304 ft | 458 kts | 291° |
| 2026-05-04 13:44 | 28.58563 | -175.27204 | 38313 ft | 458 kts | 291° |
| 2026-05-04 13:44 | 28.60746 | -175.34002 | 38303 ft | 457 kts | 291° |
| 2026-05-04 13:45 | 28.62926 | -175.40802 | 38306 ft | 457 kts | 291° |
| 2026-05-04 13:45 | 28.65102 | -175.47605 | 38306 ft | 457 kts | 291° |
| 2026-05-04 13:46 | 28.67275 | -175.54411 | 38305 ft | 457 kts | 291° |
| 2026-05-04 13:46 | 28.69434 | -175.61188 | 38306 ft | 457 kts | 291° |
| 2026-05-04 13:47 | 28.71602 | -175.68005 | 38306 ft | 457 kts | 291° |
| 2026-05-04 13:47 | 28.73768 | -175.74829 | 38306 ft | 457 kts | 291° |
| 2026-05-04 13:48 | 28.75563 | -175.80495 | 38306 ft | 457 kts | 291° |
| 2026-05-04 13:48 | 28.77721 | -175.87321 | 38306 ft | 457 kts | 291° |
| 2026-05-04 13:49 | 28.79878 | -175.94157 | 38309 ft | 457 kts | 291° |
| 2026-05-04 13:49 | 28.82015 | -176.00942 | 38309 ft | 457 kts | 291° |
| 2026-05-04 13:50 | 28.84162 | -176.07773 | 38309 ft | 457 kts | 291° |
| 2026-05-04 13:50 | 28.86307 | -176.14610 | 38311 ft | 458 kts | 291° |
| 2026-05-04 13:51 | 28.88450 | -176.21454 | 38315 ft | 458 kts | 291° |
| 2026-05-04 13:51 | 28.90591 | -176.28309 | 38316 ft | 458 kts | 291° |
| 2026-05-04 13:52 | 28.93786 | -176.38560 | 38317 ft | 458 kts | 291° |
| 2026-05-04 13:53 | 28.95918 | -176.45420 | 38317 ft | 458 kts | 291° |
| 2026-05-04 13:53 | 28.98047 | -176.52284 | 38319 ft | 458 kts | 291° |
| 2026-05-04 13:54 | 29.01237 | -176.62592 | 38318 ft | 460 kts | 291° |
| 2026-05-04 13:55 | 29.04429 | -176.72941 | 38320 ft | 460 kts | 291° |
| 2026-05-04 13:55 | 29.07602 | -176.83260 | 38317 ft | 460 kts | 291° |
| 2026-05-04 13:56 | 29.09724 | -176.90179 | 38319 ft | 461 kts | 291° |
| 2026-05-04 13:57 | 29.12904 | -177.00576 | 38316 ft | 461 kts | 291° |
| 2026-05-04 13:58 | 29.17119 | -177.14407 | 38313 ft | 462 kts | 291° |
| 2026-05-04 13:58 | 29.20281 | -177.24820 | 38313 ft | 462 kts | 291° |
| 2026-05-04 13:59 | 29.22387 | -177.31772 | 38331 ft | 462 kts | 291° |
| 2026-05-04 14:00 | 29.25561 | -177.42275 | 38321 ft | 468 kts | 291° |
| 2026-05-04 14:00 | 29.28748 | -177.52865 | 38322 ft | 468 kts | 291° |
| 2026-05-04 14:01 | 29.30853 | -177.59877 | 38321 ft | 468 kts | 291° |
| 2026-05-04 14:02 | 29.34028 | -177.70477 | 38318 ft | 469 kts | 291° |
| 2026-05-04 14:02 | 29.36146 | -177.77570 | 38317 ft | 470 kts | 291° |
| 2026-05-04 14:03 | 29.38266 | -177.84685 | 38317 ft | 471 kts | 291° |
| 2026-05-04 14:03 | 29.40365 | -177.91745 | 38320 ft | 471 kts | 291° |
| 2026-05-04 14:04 | 29.43535 | -178.02437 | 38319 ft | 471 kts | 291° |
| 2026-05-04 14:04 | 29.45643 | -178.09563 | 38307 ft | 471 kts | 291° |
| 2026-05-04 14:05 | 29.48785 | -178.20219 | 38321 ft | 472 kts | 291° |
| 2026-05-04 14:06 | 29.50888 | -178.27370 | 38318 ft | 473 kts | 291° |
| 2026-05-04 14:06 | 29.52988 | -178.34529 | 38339 ft | 473 kts | 291° |
| 2026-05-04 14:07 | 29.55085 | -178.41691 | 38324 ft | 473 kts | 291° |
| 2026-05-04 14:07 | 29.57176 | -178.48849 | 38309 ft | 472 kts | 291° |
| 2026-05-04 14:08 | 29.59253 | -178.55978 | 38319 ft | 473 kts | 291° |
| 2026-05-04 14:08 | 29.61338 | -178.63148 | 38314 ft | 473 kts | 291° |
| 2026-05-04 14:09 | 29.64463 | -178.73924 | 38316 ft | 473 kts | 291° |
| 2026-05-04 14:10 | 29.67567 | -178.84667 | 38323 ft | 473 kts | 291° |
| 2026-05-04 14:10 | 29.69640 | -178.91859 | 38318 ft | 474 kts | 291° |
| 2026-05-04 14:11 | 29.71714 | -178.99072 | 38321 ft | 475 kts | 291° |
| 2026-05-04 14:11 | 29.74819 | -179.09907 | 38316 ft | 475 kts | 291° |
| 2026-05-04 14:12 | 29.76870 | -179.17083 | 38316 ft | 475 kts | 290° |
| 2026-05-04 14:13 | 29.79962 | -179.27931 | 38325 ft | 475 kts | 290° |
| 2026-05-04 14:13 | 29.82022 | -179.35178 | 38324 ft | 476 kts | 290° |
| 2026-05-04 14:14 | 29.84072 | -179.42409 | 38315 ft | 473 kts | 290° |
| 2026-05-04 14:14 | 29.87107 | -179.53150 | 38332 ft | 471 kts | 290° |
| 2026-05-04 14:15 | 29.91155 | -179.67522 | 38312 ft | 471 kts | 290° |
| 2026-05-04 14:16 | 29.94164 | -179.78252 | 38311 ft | 471 kts | 290° |
| 2026-05-04 14:17 | 29.97182 | -179.89054 | 38318 ft | 471 kts | 290° |
| 2026-05-04 14:18 | 30.00187 | -179.99846 | 38313 ft | 471 kts | 290° |
| 2026-05-04 14:19 | 30.04266 | 179.85818 | 38325 ft | 472 kts | 291° |
| 2026-05-04 14:19 | 30.06322 | 179.78623 | 38326 ft | 472 kts | 291° |
| 2026-05-04 14:20 | 30.08370 | 179.71417 | 38308 ft | 472 kts | 290° |
| 2026-05-04 14:20 | 30.10399 | 179.64251 | 38310 ft | 472 kts | 290° |
| 2026-05-04 14:21 | 30.13447 | 179.53447 | 38319 ft | 470 kts | 291° |
| 2026-05-04 14:21 | 30.15469 | 179.46264 | 38319 ft | 470 kts | 291° |
| 2026-05-04 14:22 | 30.17476 | 179.39115 | 38319 ft | 470 kts | 290° |
| 2026-05-04 14:22 | 30.19495 | 179.31910 | 38319 ft | 470 kts | 290° |
| 2026-05-04 14:23 | 30.22512 | 179.21108 | 38319 ft | 470 kts | 290° |
| 2026-05-04 14:24 | 30.24506 | 179.13950 | 38321 ft | 471 kts | 290° |
| 2026-05-04 14:24 | 30.26513 | 179.06725 | 38323 ft | 471 kts | 290° |
| 2026-05-04 14:25 | 30.28514 | 178.99504 | 38321 ft | 471 kts | 290° |
| 2026-05-04 14:25 | 30.31509 | 178.88670 | 38319 ft | 471 kts | 290° |
| 2026-05-04 14:26 | 30.33499 | 178.81445 | 38319 ft | 472 kts | 290° |
| 2026-05-04 14:26 | 30.35482 | 178.74233 | 38320 ft | 472 kts | 290° |
| 2026-05-04 14:27 | 30.37472 | 178.66974 | 38319 ft | 472 kts | 290° |
| 2026-05-04 14:27 | 30.39462 | 178.59699 | 38322 ft | 472 kts | 290° |
| 2026-05-04 14:28 | 30.41426 | 178.52497 | 38319 ft | 471 kts | 290° |
| 2026-05-04 14:28 | 30.43398 | 178.45253 | 38312 ft | 471 kts | 290° |
| 2026-05-04 14:29 | 30.47342 | 178.30715 | 38317 ft | 473 kts | 290° |
| 2026-05-04 14:30 | 30.49312 | 178.23423 | 38317 ft | 473 kts | 290° |
| 2026-05-04 14:31 | 30.52250 | 178.12514 | 38318 ft | 473 kts | 290° |
| 2026-05-04 14:32 | 30.56153 | 177.97966 | 38317 ft | 474 kts | 290° |
| 2026-05-04 14:32 | 30.58109 | 177.90646 | 38317 ft | 474 kts | 290° |
| 2026-05-04 14:33 | 30.60062 | 177.83320 | 38314 ft | 474 kts | 290° |
| 2026-05-04 14:33 | 30.62009 | 177.75996 | 38314 ft | 475 kts | 290° |
| 2026-05-04 14:34 | 30.63940 | 177.68716 | 38312 ft | 475 kts | 290° |
| 2026-05-04 14:34 | 30.65885 | 177.61366 | 38317 ft | 476 kts | 290° |
| 2026-05-04 14:35 | 30.67827 | 177.54005 | 38316 ft | 475 kts | 290° |
| 2026-05-04 14:35 | 30.69749 | 177.46701 | 38317 ft | 475 kts | 290° |
| 2026-05-04 14:36 | 30.71679 | 177.39350 | 38316 ft | 475 kts | 290° |
| 2026-05-04 14:36 | 30.73607 | 177.31991 | 38304 ft | 475 kts | 290° |
| 2026-05-04 14:37 | 30.75206 | 177.25870 | 38319 ft | 476 kts | 290° |
| 2026-05-04 14:37 | 30.77441 | 177.17295 | 38320 ft | 476 kts | 290° |
| 2026-05-04 14:38 | 30.79047 | 177.11116 | 38319 ft | 477 kts | 290° |
| 2026-05-04 14:38 | 30.80964 | 177.03726 | 38318 ft | 477 kts | 290° |
| 2026-05-04 14:39 | 30.82866 | 176.96369 | 38316 ft | 477 kts | 290° |
| 2026-05-04 14:39 | 30.84773 | 176.88979 | 38316 ft | 477 kts | 290° |
| 2026-05-04 14:40 | 30.87631 | 176.77867 | 38317 ft | 478 kts | 290° |
| 2026-05-04 14:40 | 30.89534 | 176.70442 | 38317 ft | 478 kts | 290° |
| 2026-05-04 14:41 | 30.91422 | 176.63056 | 38314 ft | 478 kts | 290° |
| 2026-05-04 14:42 | 30.95198 | 176.48222 | 38312 ft | 476 kts | 290° |
| 2026-05-04 14:42 | 30.97076 | 176.40818 | 38311 ft | 476 kts | 290° |
| 2026-05-04 14:43 | 30.98937 | 176.33461 | 38312 ft | 476 kts | 290° |
| 2026-05-04 14:43 | 31.00805 | 176.26058 | 38311 ft | 476 kts | 290° |
| 2026-05-04 14:44 | 31.02669 | 176.18652 | 38301 ft | 476 kts | 290° |
| 2026-05-04 14:44 | 31.04532 | 176.11228 | 38309 ft | 477 kts | 290° |
| 2026-05-04 14:45 | 31.06392 | 176.03798 | 38308 ft | 477 kts | 290° |
| 2026-05-04 14:45 | 31.08234 | 175.96418 | 38309 ft | 477 kts | 290° |
| 2026-05-04 14:46 | 31.10086 | 175.88977 | 38311 ft | 477 kts | 290° |
| 2026-05-04 14:46 | 31.11934 | 175.81534 | 38311 ft | 477 kts | 290° |
| 2026-05-04 14:47 | 31.13778 | 175.74086 | 38311 ft | 477 kts | 290° |
| 2026-05-04 14:47 | 31.15618 | 175.66635 | 38311 ft | 478 kts | 290° |
| 2026-05-04 14:48 | 31.17443 | 175.59221 | 38309 ft | 478 kts | 289° |
| 2026-05-04 14:48 | 31.19275 | 175.51760 | 38308 ft | 478 kts | 289° |
| 2026-05-04 14:49 | 31.21104 | 175.44292 | 38308 ft | 478 kts | 289° |
| 2026-05-04 14:49 | 31.22932 | 175.36809 | 38309 ft | 478 kts | 289° |
| 2026-05-04 14:50 | 31.24754 | 175.29330 | 38309 ft | 478 kts | 289° |
| 2026-05-04 14:50 | 31.26571 | 175.21848 | 38308 ft | 478 kts | 289° |
| 2026-05-04 14:51 | 31.28374 | 175.14405 | 38309 ft | 478 kts | 289° |
| 2026-05-04 14:51 | 31.30184 | 175.06910 | 38309 ft | 478 kts | 289° |
| 2026-05-04 14:52 | 31.31991 | 174.99411 | 38306 ft | 479 kts | 289° |
| 2026-05-04 14:52 | 31.33798 | 174.91888 | 38306 ft | 480 kts | 289° |
| 2026-05-04 14:53 | 31.35586 | 174.84422 | 38306 ft | 480 kts | 289° |
| 2026-05-04 14:53 | 31.37383 | 174.76899 | 38306 ft | 480 kts | 289° |
| 2026-05-04 14:54 | 31.39174 | 174.69379 | 38308 ft | 480 kts | 289° |
| 2026-05-04 14:54 | 31.40966 | 174.61836 | 38316 ft | 480 kts | 289° |
| 2026-05-04 14:55 | 31.42745 | 174.54319 | 38308 ft | 477 kts | 289° |
| 2026-05-04 14:55 | 31.44512 | 174.46835 | 38308 ft | 476 kts | 289° |
| 2026-05-04 14:56 | 31.46275 | 174.39350 | 38310 ft | 476 kts | 289° |
| 2026-05-04 14:56 | 31.48023 | 174.31909 | 38306 ft | 476 kts | 289° |
| 2026-05-04 14:57 | 31.49779 | 174.24410 | 38305 ft | 477 kts | 289° |
| 2026-05-04 14:57 | 31.51533 | 174.16899 | 38303 ft | 477 kts | 289° |
| 2026-05-04 14:58 | 31.53283 | 174.09381 | 38303 ft | 477 kts | 289° |
| 2026-05-04 14:58 | 31.55015 | 174.01919 | 38303 ft | 477 kts | 289° |
| 2026-05-04 14:59 | 31.56757 | 173.94393 | 38303 ft | 477 kts | 289° |
| 2026-05-04 15:00 | 31.59363 | 173.83097 | 38310 ft | 478 kts | 288° |
| 2026-05-04 15:00 | 31.61093 | 173.75570 | 38309 ft | 478 kts | 289° |
| 2026-05-04 15:01 | 31.63668 | 173.64319 | 38309 ft | 478 kts | 289° |
| 2026-05-04 15:01 | 31.65386 | 173.56791 | 38303 ft | 477 kts | 288° |
| 2026-05-04 15:02 | 31.67096 | 173.49268 | 38302 ft | 477 kts | 288° |
| 2026-05-04 15:02 | 31.68806 | 173.41730 | 38300 ft | 477 kts | 288° |
| 2026-05-04 15:03 | 31.70498 | 173.34248 | 38303 ft | 477 kts | 288° |
| 2026-05-04 15:03 | 31.72200 | 173.26698 | 38300 ft | 477 kts | 288° |
| 2026-05-04 15:04 | 31.73896 | 173.19151 | 38306 ft | 477 kts | 288° |
| 2026-05-04 15:04 | 31.75587 | 173.11608 | 38302 ft | 477 kts | 288° |
| 2026-05-04 15:05 | 31.77272 | 173.04065 | 38304 ft | 478 kts | 288° |
| 2026-05-04 15:05 | 31.78946 | 172.96549 | 38305 ft | 478 kts | 288° |
| 2026-05-04 15:06 | 31.80627 | 172.88979 | 38303 ft | 478 kts | 288° |
| 2026-05-04 15:07 | 31.83137 | 172.77636 | 38305 ft | 478 kts | 288° |
| 2026-05-04 15:07 | 31.84804 | 172.70073 | 38306 ft | 478 kts | 288° |
| 2026-05-04 15:08 | 31.86457 | 172.62549 | 38305 ft | 478 kts | 288° |
| 2026-05-04 15:08 | 31.88112 | 172.54990 | 38300 ft | 475 kts | 288° |
| 2026-05-04 15:09 | 31.89748 | 172.47500 | 38302 ft | 475 kts | 288° |
| 2026-05-04 15:09 | 31.91389 | 172.39967 | 38295 ft | 475 kts | 288° |
| 2026-05-04 15:10 | 31.93843 | 172.28654 | 38305 ft | 475 kts | 287° |
| 2026-05-04 15:11 | 31.96275 | 172.17389 | 38301 ft | 475 kts | 287° |
| 2026-05-04 15:11 | 31.97899 | 172.09840 | 38305 ft | 475 kts | 287° |
| 2026-05-04 15:12 | 31.99516 | 172.02299 | 38299 ft | 475 kts | 287° |
| 2026-05-04 15:12 | 32.01197 | 171.94753 | 38302 ft | 475 kts | 289° |
| 2026-05-04 15:13 | 32.03040 | 171.87327 | 38303 ft | 475 kts | 289° |
| 2026-05-04 15:13 | 32.04909 | 171.79844 | 38302 ft | 475 kts | 289° |
| 2026-05-04 15:14 | 32.06743 | 171.72364 | 38302 ft | 475 kts | 289° |
| 2026-05-04 15:14 | 32.08546 | 171.64920 | 38299 ft | 473 kts | 289° |
| 2026-05-04 15:15 | 32.10341 | 171.57469 | 38307 ft | 472 kts | 289° |
| 2026-05-04 15:15 | 32.12134 | 171.50016 | 38307 ft | 472 kts | 289° |
| 2026-05-04 15:16 | 32.14803 | 171.38886 | 38305 ft | 472 kts | 289° |
| 2026-05-04 15:17 | 32.17479 | 171.27683 | 38293 ft | 472 kts | 288° |
| 2026-05-04 15:17 | 32.20132 | 171.16526 | 38305 ft | 473 kts | 288° |
| 2026-05-04 15:18 | 32.21906 | 171.09039 | 38306 ft | 473 kts | 288° |
| 2026-05-04 15:19 | 32.24559 | 170.97802 | 38306 ft | 473 kts | 288° |
| 2026-05-04 15:19 | 32.27190 | 170.86609 | 38305 ft | 474 kts | 288° |
| 2026-05-04 15:20 | 32.28954 | 170.79079 | 38307 ft | 474 kts | 288° |
| 2026-05-04 15:20 | 32.30705 | 170.71580 | 38305 ft | 472 kts | 288° |
| 2026-05-04 15:21 | 32.32438 | 170.64138 | 38305 ft | 472 kts | 288° |
| 2026-05-04 15:22 | 32.35045 | 170.52903 | 38305 ft | 472 kts | 288° |
| 2026-05-04 15:22 | 32.37645 | 170.41646 | 38306 ft | 473 kts | 288° |
| 2026-05-04 15:23 | 32.39366 | 170.34169 | 38306 ft | 473 kts | 288° |
| 2026-05-04 15:23 | 32.41092 | 170.26647 | 38306 ft | 473 kts | 288° |
| 2026-05-04 15:24 | 32.44525 | 170.11618 | 38307 ft | 474 kts | 288° |
| 2026-05-04 15:25 | 32.46241 | 170.04074 | 38310 ft | 474 kts | 288° |
| 2026-05-04 15:26 | 32.48523 | 169.94004 | 38305 ft | 474 kts | 288° |
| 2026-05-04 15:26 | 32.51073 | 169.82698 | 38305 ft | 472 kts | 288° |
| 2026-05-04 15:27 | 32.53598 | 169.71461 | 38310 ft | 472 kts | 287° |
| 2026-05-04 15:28 | 32.56124 | 169.60165 | 38304 ft | 473 kts | 287° |
| 2026-05-04 15:29 | 32.58643 | 169.48848 | 38304 ft | 473 kts | 287° |
| 2026-05-04 15:30 | 32.64482 | 169.22415 | 38304 ft | 474 kts | 287° |
| 2026-05-04 15:31 | 32.66972 | 169.11055 | 38313 ft | 474 kts | 287° |
| 2026-05-04 15:32 | 32.71083 | 168.92179 | 38312 ft | 472 kts | 287° |
| 2026-05-04 15:34 | 32.75164 | 168.73299 | 38302 ft | 472 kts | 287° |
| 2026-05-04 15:34 | 32.77590 | 168.62003 | 38303 ft | 473 kts | 287° |
| 2026-05-04 15:35 | 32.80020 | 168.50637 | 38305 ft | 473 kts | 287° |
| 2026-05-04 15:36 | 32.82439 | 168.39266 | 38299 ft | 473 kts | 287° |
| 2026-05-04 15:36 | 32.84046 | 168.31681 | 38302 ft | 473 kts | 286° |
| 2026-05-04 15:37 | 32.85652 | 168.24077 | 38295 ft | 474 kts | 286° |
| 2026-05-04 15:37 | 32.87256 | 168.16462 | 38309 ft | 474 kts | 286° |
| 2026-05-04 15:38 | 32.88840 | 168.08906 | 38308 ft | 473 kts | 286° |
| 2026-05-04 15:38 | 32.90430 | 168.01306 | 38303 ft | 472 kts | 286° |
| 2026-05-04 15:39 | 32.92013 | 167.93717 | 38293 ft | 473 kts | 286° |
| 2026-05-04 15:40 | 32.94383 | 167.82302 | 38302 ft | 474 kts | 286° |
| 2026-05-04 15:40 | 32.95959 | 167.74682 | 38300 ft | 474 kts | 286° |
| 2026-05-04 15:41 | 32.97532 | 167.67051 | 38297 ft | 474 kts | 286° |
| 2026-05-04 15:41 | 32.99092 | 167.59456 | 38295 ft | 474 kts | 286° |
| 2026-05-04 15:42 | 33.00656 | 167.51815 | 38296 ft | 475 kts | 285° |
| 2026-05-04 15:42 | 33.02214 | 167.44182 | 38297 ft | 476 kts | 285° |
| 2026-05-04 15:43 | 33.03773 | 167.36517 | 38295 ft | 476 kts | 285° |
| 2026-05-04 15:43 | 33.05327 | 167.28850 | 38292 ft | 475 kts | 285° |
| 2026-05-04 15:44 | 33.06872 | 167.21200 | 38294 ft | 473 kts | 285° |
| 2026-05-04 15:44 | 33.08411 | 167.13554 | 38294 ft | 474 kts | 285° |
| 2026-05-04 15:45 | 33.09937 | 167.05954 | 38297 ft | 474 kts | 285° |
| 2026-05-04 15:45 | 33.11469 | 166.98294 | 38293 ft | 474 kts | 285° |
| 2026-05-04 15:46 | 33.12998 | 166.90622 | 38297 ft | 474 kts | 285° |
| 2026-05-04 15:46 | 33.14520 | 166.82959 | 38294 ft | 475 kts | 285° |
| 2026-05-04 15:47 | 33.16039 | 166.75282 | 38295 ft | 475 kts | 285° |
| 2026-05-04 15:47 | 33.17557 | 166.67589 | 38294 ft | 476 kts | 285° |
| 2026-05-04 15:48 | 33.19059 | 166.59945 | 38293 ft | 476 kts | 285° |
| 2026-05-04 15:48 | 33.21318 | 166.48406 | 38285 ft | 476 kts | 284° |
| 2026-05-04 15:49 | 33.22822 | 166.40690 | 38289 ft | 478 kts | 284° |
| 2026-05-04 15:49 | 33.24327 | 166.32940 | 38289 ft | 478 kts | 284° |
| 2026-05-04 15:50 | 33.25815 | 166.25250 | 38289 ft | 478 kts | 284° |
| 2026-05-04 15:50 | 33.27311 | 166.17489 | 38283 ft | 478 kts | 284° |
| 2026-05-04 15:51 | 33.28799 | 166.09745 | 38284 ft | 479 kts | 284° |
| 2026-05-04 15:51 | 33.30289 | 166.01964 | 38284 ft | 480 kts | 284° |
| 2026-05-04 15:52 | 33.31776 | 165.94168 | 38282 ft | 480 kts | 284° |
| 2026-05-04 15:52 | 33.33256 | 165.86377 | 38284 ft | 480 kts | 284° |
| 2026-05-04 15:53 | 33.34724 | 165.78628 | 38286 ft | 480 kts | 284° |
| 2026-05-04 15:53 | 33.36199 | 165.70812 | 38278 ft | 481 kts | 284° |
| 2026-05-04 15:54 | 33.37668 | 165.62997 | 38282 ft | 482 kts | 284° |
| 2026-05-04 15:54 | 33.39131 | 165.55187 | 38278 ft | 480 kts | 283° |
| 2026-05-04 15:55 | 33.40585 | 165.47395 | 38277 ft | 479 kts | 283° |
| 2026-05-04 15:55 | 33.42022 | 165.39664 | 38276 ft | 479 kts | 283° |
| 2026-05-04 15:56 | 33.43465 | 165.31877 | 38278 ft | 479 kts | 283° |
| 2026-05-04 15:56 | 33.44902 | 165.24092 | 38273 ft | 479 kts | 283° |
| 2026-05-04 15:57 | 33.46334 | 165.16301 | 38273 ft | 479 kts | 283° |
| 2026-05-04 15:57 | 33.47763 | 165.08501 | 38273 ft | 479 kts | 283° |
| 2026-05-04 15:58 | 33.49188 | 165.00692 | 38274 ft | 480 kts | 283° |
| 2026-05-04 15:58 | 33.50610 | 164.92872 | 38270 ft | 480 kts | 283° |
| 2026-05-04 15:59 | 33.52025 | 164.85060 | 38267 ft | 480 kts | 283° |
| 2026-05-04 15:59 | 33.53436 | 164.77241 | 38268 ft | 480 kts | 283° |
| 2026-05-04 16:00 | 33.54830 | 164.69483 | 38265 ft | 478 kts | 283° |
| 2026-05-04 16:00 | 33.56225 | 164.61695 | 38266 ft | 478 kts | 283° |
| 2026-05-04 16:01 | 33.57616 | 164.53895 | 38265 ft | 478 kts | 283° |
| 2026-05-04 16:01 | 33.59001 | 164.46104 | 38264 ft | 478 kts | 283° |
| 2026-05-04 16:02 | 33.60382 | 164.38301 | 38263 ft | 478 kts | 283° |
| 2026-05-04 16:03 | 33.62438 | 164.26634 | 38261 ft | 478 kts | 282° |
| 2026-05-04 16:03 | 33.63808 | 164.18821 | 38262 ft | 478 kts | 282° |
| 2026-05-04 16:04 | 33.65173 | 164.11000 | 38260 ft | 478 kts | 282° |
| 2026-05-04 16:04 | 33.67211 | 163.99277 | 38259 ft | 478 kts | 282° |
| 2026-05-04 16:05 | 33.68564 | 163.91452 | 38252 ft | 478 kts | 282° |
| 2026-05-04 16:06 | 33.70575 | 163.79765 | 38253 ft | 477 kts | 282° |
| 2026-05-04 16:07 | 33.73242 | 163.64152 | 38250 ft | 477 kts | 282° |
| 2026-05-04 16:08 | 33.75887 | 163.48552 | 38252 ft | 478 kts | 281° |
| 2026-05-04 16:09 | 33.79167 | 163.29026 | 38247 ft | 477 kts | 281° |
| 2026-05-04 16:10 | 33.81774 | 163.13360 | 38257 ft | 478 kts | 281° |
| 2026-05-04 16:11 | 33.84354 | 162.97736 | 38248 ft | 477 kts | 281° |
| 2026-05-04 16:12 | 33.87984 | 162.75522 | 38240 ft | 477 kts | 281° |
| 2026-05-04 16:13 | 33.90727 | 162.58561 | 38238 ft | 477 kts | 281° |
| 2026-05-04 16:14 | 33.93035 | 162.44172 | 38237 ft | 477 kts | 281° |
| 2026-05-04 16:16 | 33.96154 | 162.24542 | 38228 ft | 477 kts | 280° |
| 2026-05-04 16:17 | 33.99231 | 162.04968 | 38230 ft | 476 kts | 280° |
| 2026-05-04 16:18 | 34.01569 | 161.89254 | 38224 ft | 476 kts | 279° |
| 2026-05-04 16:19 | 34.04289 | 161.69612 | 38219 ft | 477 kts | 279° |
| 2026-05-04 16:20 | 34.07026 | 161.49902 | 38221 ft | 476 kts | 279° |
| 2026-05-04 16:22 | 34.09729 | 161.30195 | 38219 ft | 475 kts | 279° |
| 2026-05-04 16:23 | 34.12921 | 161.06605 | 38207 ft | 475 kts | 278° |
| 2026-05-04 16:25 | 34.16066 | 160.83010 | 38208 ft | 475 kts | 278° |
| 2026-05-04 16:26 | 34.19681 | 160.55437 | 38202 ft | 474 kts | 278° |
| 2026-05-04 16:28 | 34.22221 | 160.35760 | 38193 ft | 474 kts | 278° |
| 2026-05-04 16:29 | 34.25721 | 160.08222 | 38192 ft | 474 kts | 278° |
| 2026-05-04 16:31 | 34.28180 | 159.88560 | 38185 ft | 474 kts | 278° |
| 2026-05-04 16:32 | 34.31079 | 159.65037 | 38176 ft | 470 kts | 277° |
| 2026-05-04 16:33 | 34.32982 | 159.49387 | 38180 ft | 469 kts | 277° |
| 2026-05-04 16:34 | 34.34393 | 159.37664 | 38180 ft | 469 kts | 277° |
| 2026-05-04 16:35 | 34.37178 | 159.14253 | 38170 ft | 469 kts | 277° |
| 2026-05-04 16:36 | 34.38556 | 159.02522 | 38170 ft | 468 kts | 277° |
| 2026-05-04 16:37 | 34.39917 | 158.90830 | 38157 ft | 469 kts | 277° |
| 2026-05-04 16:38 | 34.41720 | 158.75199 | 38163 ft | 468 kts | 277° |
| 2026-05-04 16:39 | 34.43937 | 158.55718 | 38154 ft | 468 kts | 276° |
| 2026-05-04 16:40 | 34.45695 | 158.40067 | 38152 ft | 468 kts | 276° |
| 2026-05-04 16:41 | 34.47857 | 158.20562 | 38162 ft | 468 kts | 276° |
| 2026-05-04 16:43 | 34.49991 | 158.01017 | 38153 ft | 469 kts | 276° |
| 2026-05-04 16:43 | 34.51261 | 157.89249 | 38138 ft | 469 kts | 276° |
| 2026-05-04 16:45 | 34.53764 | 157.65719 | 38138 ft | 469 kts | 275° |
| 2026-05-04 16:46 | 34.55810 | 157.46157 | 38137 ft | 468 kts | 275° |
| 2026-05-04 16:47 | 34.57428 | 157.30464 | 38134 ft | 467 kts | 275° |
| 2026-05-04 16:48 | 34.59013 | 157.14887 | 38129 ft | 465 kts | 275° |
| 2026-05-04 16:49 | 34.60582 | 156.99271 | 38125 ft | 465 kts | 275° |
| 2026-05-04 16:50 | 34.62123 | 156.83730 | 38122 ft | 464 kts | 275° |
| 2026-05-04 16:51 | 34.63269 | 156.72039 | 38118 ft | 464 kts | 275° |
| 2026-05-04 16:52 | 34.64772 | 156.56525 | 38113 ft | 464 kts | 275° |
| 2026-05-04 16:53 | 34.65888 | 156.44873 | 38115 ft | 461 kts | 274° |
| 2026-05-04 16:54 | 34.67352 | 156.29391 | 38100 ft | 461 kts | 274° |
| 2026-05-04 16:55 | 34.69508 | 156.06207 | 38093 ft | 461 kts | 274° |
| 2026-05-04 16:56 | 34.71269 | 155.86905 | 38088 ft | 460 kts | 274° |
| 2026-05-04 16:57 | 34.72313 | 155.75287 | 38097 ft | 460 kts | 274° |
| 2026-05-04 16:58 | 34.73676 | 155.59939 | 38083 ft | 457 kts | 274° |
| 2026-05-04 17:00 | 34.75681 | 155.36937 | 38074 ft | 456 kts | 274° |
| 2026-05-04 17:01 | 34.77320 | 155.17747 | 38072 ft | 456 kts | 273° |
| 2026-05-04 17:02 | 34.78502 | 155.03690 | 38064 ft | 456 kts | 273° |
| 2026-05-04 17:03 | 34.79457 | 154.92175 | 38067 ft | 454 kts | 273° |
| 2026-05-04 17:03 | 34.80395 | 154.80738 | 38056 ft | 453 kts | 273° |
| 2026-05-04 17:04 | 34.81628 | 154.65493 | 38056 ft | 453 kts | 273° |
| 2026-05-04 17:05 | 34.82843 | 154.50235 | 38048 ft | 452 kts | 273° |
| 2026-05-04 17:06 | 34.83739 | 154.38818 | 38048 ft | 452 kts | 272° |
| 2026-05-04 17:07 | 34.84526 | 154.28679 | 38045 ft | 452 kts | 272° |
| 2026-05-04 17:07 | 34.85210 | 154.19784 | 38051 ft | 451 kts | 272° |
| 2026-05-04 17:08 | 34.86075 | 154.08388 | 38039 ft | 450 kts | 272° |
| 2026-05-04 17:09 | 34.86647 | 154.00788 | 38037 ft | 450 kts | 272° |
| 2026-05-04 17:09 | 34.87213 | 153.93193 | 38037 ft | 450 kts | 272° |
| 2026-05-04 17:10 | 34.88603 | 153.74265 | 38028 ft | 450 kts | 272° |
| 2026-05-04 17:11 | 34.89153 | 153.66672 | 38033 ft | 449 kts | 272° |
| 2026-05-04 17:12 | 34.89963 | 153.55352 | 38015 ft | 448 kts | 272° |
| 2026-05-04 17:13 | 34.91294 | 153.36425 | 38020 ft | 447 kts | 272° |
| 2026-05-04 17:14 | 34.92331 | 153.21360 | 38010 ft | 447 kts | 272° |
| 2026-05-04 17:15 | 34.93099 | 153.10027 | 38011 ft | 446 kts | 271° |
| 2026-05-04 17:16 | 34.94100 | 152.95025 | 38002 ft | 445 kts | 271° |
| 2026-05-04 17:17 | 34.95086 | 152.79958 | 38000 ft | 445 kts | 271° |
| 2026-05-04 17:18 | 34.96048 | 152.64989 | 37990 ft | 443 kts | 271° |
| 2026-05-04 17:19 | 34.96991 | 152.50004 | 37992 ft | 442 kts | 271° |
| 2026-05-04 17:20 | 34.97911 | 152.35104 | 37979 ft | 441 kts | 271° |
| 2026-05-04 17:20 | 34.98590 | 152.23894 | 37987 ft | 441 kts | 270° |
| 2026-05-04 17:21 | 34.99480 | 152.08956 | 37971 ft | 441 kts | 270° |
| 2026-05-04 17:22 | 34.99918 | 152.01495 | 37975 ft | 441 kts | 270° |
| 2026-05-04 17:23 | 35.01011 | 151.86623 | 37971 ft | 440 kts | 272° |
| 2026-05-04 17:24 | 35.01906 | 151.75463 | 37959 ft | 440 kts | 271° |
| 2026-05-04 17:25 | 35.03033 | 151.60648 | 37959 ft | 439 kts | 271° |
| 2026-05-04 17:26 | 35.04139 | 151.45807 | 37949 ft | 439 kts | 271° |
| 2026-05-04 17:27 | 35.05494 | 151.27309 | 37958 ft | 438 kts | 271° |
| 2026-05-04 17:28 | 35.06554 | 151.12573 | 37944 ft | 435 kts | 270° |
| 2026-05-04 17:29 | 35.08106 | 150.90510 | 37942 ft | 434 kts | 270° |
| 2026-05-04 17:31 | 35.09362 | 150.72209 | 37938 ft | 433 kts | 270° |
| 2026-05-04 17:32 | 35.10590 | 150.53914 | 37935 ft | 432 kts | 270° |
| 2026-05-04 17:33 | 35.11553 | 150.39273 | 37931 ft | 432 kts | 270° |
| 2026-05-04 17:34 | 35.12493 | 150.24701 | 37931 ft | 431 kts | 270° |
| 2026-05-04 17:35 | 35.13645 | 150.06467 | 37925 ft | 431 kts | 270° |
| 2026-05-04 17:36 | 35.14099 | 149.99162 | 37927 ft | 431 kts | 270° |
| 2026-05-04 17:36 | 35.14548 | 149.91858 | 37938 ft | 430 kts | 269° |
| 2026-05-04 17:37 | 35.14992 | 149.84582 | 37925 ft | 428 kts | 269° |
| 2026-05-04 17:37 | 35.15430 | 149.77338 | 37922 ft | 426 kts | 269° |
| 2026-05-04 17:38 | 35.15857 | 149.70159 | 37928 ft | 426 kts | 269° |
| 2026-05-04 17:38 | 35.16284 | 149.62930 | 37928 ft | 426 kts | 269° |
| 2026-05-04 17:39 | 35.16918 | 149.52064 | 37925 ft | 426 kts | 269° |
| 2026-05-04 17:39 | 35.17332 | 149.44878 | 37926 ft | 426 kts | 269° |
| 2026-05-04 17:40 | 35.17745 | 149.37637 | 37919 ft | 426 kts | 269° |
| 2026-05-04 17:40 | 35.18153 | 149.30405 | 37929 ft | 426 kts | 269° |
| 2026-05-04 17:41 | 35.18557 | 149.23180 | 37927 ft | 425 kts | 269° |
| 2026-05-04 17:41 | 35.18952 | 149.16032 | 37928 ft | 424 kts | 269° |
| 2026-05-04 17:42 | 35.19344 | 149.08846 | 37923 ft | 423 kts | 269° |
| 2026-05-04 17:42 | 35.19732 | 149.01650 | 37934 ft | 423 kts | 269° |
| 2026-05-04 17:43 | 35.20116 | 148.94487 | 37926 ft | 421 kts | 269° |
| 2026-05-04 17:43 | 35.20493 | 148.87351 | 37924 ft | 420 kts | 269° |
| 2026-05-04 17:44 | 35.20863 | 148.80260 | 37926 ft | 420 kts | 269° |
| 2026-05-04 17:44 | 35.21231 | 148.73118 | 37928 ft | 420 kts | 269° |
| 2026-05-04 17:45 | 35.21596 | 148.65989 | 37928 ft | 419 kts | 269° |
| 2026-05-04 17:45 | 35.21953 | 148.58916 | 37924 ft | 418 kts | 268° |
| 2026-05-04 17:46 | 35.22307 | 148.51833 | 37925 ft | 417 kts | 268° |
| 2026-05-04 17:46 | 35.22655 | 148.44759 | 37929 ft | 416 kts | 268° |
| 2026-05-04 17:47 | 35.22999 | 148.37704 | 37922 ft | 414 kts | 268° |
| 2026-05-04 17:47 | 35.23338 | 148.30664 | 37925 ft | 414 kts | 268° |
| 2026-05-04 17:48 | 35.23672 | 148.23623 | 37919 ft | 414 kts | 268° |
| 2026-05-04 17:48 | 35.24000 | 148.16638 | 37920 ft | 413 kts | 268° |
| 2026-05-04 17:49 | 35.24326 | 148.09621 | 37916 ft | 412 kts | 268° |
| 2026-05-04 17:49 | 35.24648 | 148.02604 | 37914 ft | 412 kts | 268° |
| 2026-05-04 17:50 | 35.24911 | 147.96782 | 37925 ft | 412 kts | 268° |
| 2026-05-04 17:50 | 35.25274 | 147.88678 | 37917 ft | 409 kts | 268° |
| 2026-05-04 17:51 | 35.25531 | 147.82858 | 37907 ft | 407 kts | 268° |
| 2026-05-04 17:51 | 35.25831 | 147.75983 | 37907 ft | 407 kts | 268° |
| 2026-05-04 17:52 | 35.26128 | 147.69063 | 37910 ft | 407 kts | 268° |
| 2026-05-04 17:52 | 35.26422 | 147.62131 | 37918 ft | 406 kts | 267° |
| 2026-05-04 17:53 | 35.26711 | 147.55234 | 37911 ft | 405 kts | 267° |
| 2026-05-04 17:53 | 35.26994 | 147.48389 | 37913 ft | 405 kts | 267° |
| 2026-05-04 17:54 | 35.27274 | 147.41502 | 37912 ft | 405 kts | 267° |
| 2026-05-04 17:54 | 35.27551 | 147.34620 | 37943 ft | 404 kts | 267° |
| 2026-05-04 17:55 | 35.27824 | 147.27782 | 37907 ft | 400 kts | 266° |
| 2026-05-04 17:55 | 35.28088 | 147.21018 | 37908 ft | 399 kts | 266° |
| 2026-05-04 17:56 | 35.28348 | 147.14225 | 37912 ft | 399 kts | 266° |
| 2026-05-04 17:56 | 35.28605 | 147.07437 | 37907 ft | 398 kts | 266° |
| 2026-05-04 17:57 | 35.28857 | 147.00701 | 37908 ft | 398 kts | 266° |
| 2026-05-04 17:57 | 35.29105 | 146.93945 | 37909 ft | 397 kts | 266° |
| 2026-05-04 17:58 | 35.29350 | 146.87183 | 37908 ft | 397 kts | 266° |
| 2026-05-04 17:58 | 35.29591 | 146.80419 | 37905 ft | 397 kts | 266° |
| 2026-05-04 17:59 | 35.29829 | 146.73666 | 37950 ft | 397 kts | 266° |
| 2026-05-04 18:00 | 35.30177 | 146.63611 | 37908 ft | 394 kts | 266° |
| 2026-05-04 18:00 | 35.30402 | 146.56911 | 37909 ft | 393 kts | 266° |
| 2026-05-04 18:01 | 35.30624 | 146.50210 | 37911 ft | 393 kts | 266° |
| 2026-05-04 18:01 | 35.30842 | 146.43515 | 37908 ft | 393 kts | 266° |
| 2026-05-04 18:02 | 35.31161 | 146.33515 | 37903 ft | 393 kts | 266° |
| 2026-05-04 18:02 | 35.31371 | 146.26816 | 37906 ft | 392 kts | 266° |
| 2026-05-04 18:03 | 35.31577 | 146.20153 | 37908 ft | 391 kts | 265° |
| 2026-05-04 18:03 | 35.31777 | 146.13485 | 37909 ft | 391 kts | 265° |
| 2026-05-04 18:04 | 35.31973 | 146.06876 | 37904 ft | 390 kts | 265° |
| 2026-05-04 18:05 | 35.32232 | 145.96945 | 37916 ft | 386 kts | 263° |
| 2026-05-04 18:05 | 35.32052 | 145.90426 | 37902 ft | 384 kts | 261° |
| 2026-05-04 18:06 | 35.31645 | 145.80622 | 37905 ft | 384 kts | 262° |
| 2026-05-04 18:06 | 35.31425 | 145.74083 | 37913 ft | 384 kts | 262° |
| 2026-05-04 18:07 | 35.31225 | 145.67548 | 37908 ft | 383 kts | 262° |
| 2026-05-04 18:07 | 35.31025 | 145.61035 | 37908 ft | 383 kts | 262° |
| 2026-05-04 18:08 | 35.30820 | 145.54559 | 37907 ft | 383 kts | 262° |
| 2026-05-04 18:08 | 35.30610 | 145.48048 | 37914 ft | 382 kts | 262° |
| 2026-05-04 18:09 | 35.30180 | 145.35070 | 37915 ft | 380 kts | 261° |
| 2026-05-04 18:10 | 35.29961 | 145.28609 | 37913 ft | 379 kts | 261° |
| 2026-05-04 18:10 | 35.29738 | 145.22166 | 37919 ft | 378 kts | 261° |
| 2026-05-04 18:11 | 35.29514 | 145.15767 | 37922 ft | 378 kts | 261° |
| 2026-05-04 18:11 | 35.29285 | 145.09345 | 37922 ft | 377 kts | 261° |
| 2026-05-04 18:12 | 35.29053 | 145.02927 | 37928 ft | 377 kts | 261° |
| 2026-05-04 18:12 | 35.28818 | 144.96503 | 37925 ft | 377 kts | 261° |
| 2026-05-04 18:13 | 35.28648 | 144.90106 | 37930 ft | 378 kts | 262° |
| 2026-05-04 18:14 | 35.28534 | 144.80460 | 37937 ft | 378 kts | 262° |
| 2026-05-04 18:14 | 35.28440 | 144.74016 | 37946 ft | 378 kts | 262° |
| 2026-05-04 18:15 | 35.28217 | 144.61210 | 37950 ft | 376 kts | 262° |
| 2026-05-04 18:16 | 35.28098 | 144.54821 | 37954 ft | 375 kts | 262° |
| 2026-05-04 18:16 | 35.27975 | 144.48426 | 37951 ft | 375 kts | 262° |
| 2026-05-04 18:17 | 35.27788 | 144.38885 | 37961 ft | 375 kts | 262° |
| 2026-05-04 18:18 | 35.27592 | 144.29302 | 37963 ft | 375 kts | 262° |
| 2026-05-04 18:18 | 35.27457 | 144.22916 | 37971 ft | 375 kts | 262° |
| 2026-05-04 18:19 | 35.27250 | 144.13377 | 37970 ft | 375 kts | 262° |
| 2026-05-04 18:19 | 35.27107 | 144.06997 | 37964 ft | 375 kts | 262° |
| 2026-05-04 18:20 | 35.26961 | 144.00608 | 37972 ft | 375 kts | 262° |
| 2026-05-04 18:20 | 35.26811 | 143.94233 | 37977 ft | 375 kts | 261° |
| 2026-05-04 18:21 | 35.26659 | 143.87861 | 37978 ft | 375 kts | 261° |
| 2026-05-04 18:21 | 35.26502 | 143.81481 | 37978 ft | 375 kts | 261° |
| 2026-05-04 18:22 | 35.26344 | 143.75146 | 37983 ft | 374 kts | 261° |
| 2026-05-04 18:22 | 35.26181 | 143.68772 | 37979 ft | 374 kts | 261° |
| 2026-05-04 18:23 | 35.26015 | 143.62400 | 37977 ft | 374 kts | 261° |
| 2026-05-04 18:23 | 35.25847 | 143.56074 | 37983 ft | 374 kts | 261° |
| 2026-05-04 18:24 | 35.25674 | 143.49711 | 37981 ft | 374 kts | 261° |
| 2026-05-04 18:24 | 35.25498 | 143.43351 | 38023 ft | 374 kts | 261° |
| 2026-05-04 18:25 | 35.25320 | 143.37000 | 37988 ft | 372 kts | 261° |
| 2026-05-04 18:25 | 35.24802 | 143.30800 | 37990 ft | 366 kts | 254° |
| 2026-05-04 18:26 | 35.23779 | 143.24699 | 37991 ft | 365 kts | 253° |
| 2026-05-04 18:26 | 35.22673 | 143.18619 | 37990 ft | 365 kts | 253° |
| 2026-05-04 18:27 | 35.21560 | 143.12560 | 37993 ft | 365 kts | 253° |
| 2026-05-04 18:27 | 35.20455 | 143.06514 | 37994 ft | 365 kts | 253° |
| 2026-05-04 18:28 | 35.19357 | 143.00496 | 37998 ft | 365 kts | 253° |
| 2026-05-04 18:28 | 35.18250 | 142.94437 | 37995 ft | 364 kts | 253° |
| 2026-05-04 18:29 | 35.17141 | 142.88388 | 37999 ft | 364 kts | 253° |
| 2026-05-04 18:29 | 35.16038 | 142.82390 | 37999 ft | 364 kts | 253° |
| 2026-05-04 18:30 | 35.14366 | 142.73334 | 38000 ft | 364 kts | 253° |
| 2026-05-04 18:31 | 35.13250 | 142.67310 | 37999 ft | 363 kts | 253° |
| 2026-05-04 18:31 | 35.12132 | 142.61295 | 37997 ft | 363 kts | 253° |
| 2026-05-04 18:32 | 35.11013 | 142.55289 | 38000 ft | 363 kts | 253° |
| 2026-05-04 18:32 | 35.09896 | 142.49317 | 38009 ft | 362 kts | 253° |
| 2026-05-04 18:33 | 35.08772 | 142.43318 | 38007 ft | 362 kts | 253° |
| 2026-05-04 18:33 | 35.07644 | 142.37320 | 37998 ft | 362 kts | 253° |
| 2026-05-04 18:34 | 35.06523 | 142.31375 | 38004 ft | 361 kts | 253° |
| 2026-05-04 18:34 | 35.05397 | 142.25414 | 38005 ft | 360 kts | 253° |
| 2026-05-04 18:35 | 35.04267 | 142.19457 | 38008 ft | 359 kts | 253° |
| 2026-05-04 18:35 | 35.03138 | 142.13523 | 38004 ft | 359 kts | 253° |
| 2026-05-04 18:36 | 35.02005 | 142.07581 | 38007 ft | 359 kts | 253° |
| 2026-05-04 18:36 | 35.00877 | 142.01685 | 38007 ft | 359 kts | 253° |
| 2026-05-04 18:37 | 34.99740 | 141.95756 | 38006 ft | 358 kts | 253° |
| 2026-05-04 18:37 | 34.98601 | 141.89837 | 38006 ft | 358 kts | 253° |
| 2026-05-04 18:38 | 34.97460 | 141.83921 | 38007 ft | 358 kts | 253° |
| 2026-05-04 18:38 | 34.96324 | 141.78046 | 38008 ft | 358 kts | 253° |
| 2026-05-04 18:39 | 34.95181 | 141.72154 | 38009 ft | 357 kts | 253° |
| 2026-05-04 18:39 | 34.94035 | 141.66263 | 38009 ft | 357 kts | 253° |
| 2026-05-04 18:40 | 34.92887 | 141.60376 | 38014 ft | 357 kts | 253° |
| 2026-05-04 18:40 | 34.91741 | 141.54515 | 38012 ft | 356 kts | 253° |
| 2026-05-04 18:41 | 34.90589 | 141.48639 | 38012 ft | 356 kts | 252° |
| 2026-05-04 18:41 | 34.89437 | 141.42782 | 38012 ft | 356 kts | 252° |
| 2026-05-04 18:42 | 34.88467 | 141.37860 | 38012 ft | 356 kts | 252° |
| 2026-05-04 18:42 | 34.87309 | 141.32003 | 38008 ft | 356 kts | 252° |
| 2026-05-04 18:43 | 34.86155 | 141.26179 | 38012 ft | 356 kts | 252° |
| 2026-05-04 18:43 | 34.84991 | 141.20316 | 38033 ft | 356 kts | 252° |
| 2026-05-04 18:44 | 34.83826 | 141.14471 | 38018 ft | 355 kts | 252° |
| 2026-05-04 18:44 | 34.82667 | 141.08666 | 38018 ft | 354 kts | 252° |
| 2026-05-04 18:45 | 34.81498 | 141.02830 | 38023 ft | 354 kts | 252° |
| 2026-05-04 18:45 | 34.80330 | 140.97014 | 38020 ft | 353 kts | 252° |
| 2026-05-04 18:46 | 34.79168 | 140.91241 | 38020 ft | 353 kts | 252° |
| 2026-05-04 18:46 | 34.77996 | 140.85439 | 38023 ft | 353 kts | 252° |
| 2026-05-04 18:47 | 34.76822 | 140.79636 | 38020 ft | 352 kts | 252° |
| 2026-05-04 18:47 | 34.75648 | 140.73852 | 38026 ft | 352 kts | 252° |
| 2026-05-04 18:48 | 34.74472 | 140.68071 | 38025 ft | 352 kts | 252° |
| 2026-05-04 18:48 | 34.73292 | 140.62287 | 38023 ft | 352 kts | 252° |
| 2026-05-04 18:49 | 34.72117 | 140.56544 | 38028 ft | 352 kts | 252° |
| 2026-05-04 18:49 | 34.70931 | 140.50759 | 38029 ft | 352 kts | 252° |
| 2026-05-04 18:50 | 34.69931 | 140.44910 | 38029 ft | 356 kts | 258° |
| 2026-05-04 18:50 | 34.69787 | 140.38843 | 38028 ft | 361 kts | 263° |
| 2026-05-04 18:51 | 34.69885 | 140.32756 | 38033 ft | 362 kts | 264° |
| 2026-05-04 18:51 | 34.70020 | 140.26627 | 38035 ft | 362 kts | 263° |
| 2026-05-04 18:52 | 34.70141 | 140.20513 | 38030 ft | 361 kts | 263° |
| 2026-05-04 18:52 | 34.70245 | 140.14421 | 38032 ft | 361 kts | 263° |
| 2026-05-04 18:53 | 34.70342 | 140.08337 | 38032 ft | 361 kts | 263° |
| 2026-05-04 18:53 | 34.70437 | 140.02224 | 38027 ft | 362 kts | 263° |
| 2026-05-04 18:54 | 34.70531 | 139.96108 | 38021 ft | 361 kts | 263° |
| 2026-05-04 18:54 | 34.70620 | 139.90023 | 38029 ft | 362 kts | 263° |
| 2026-05-04 18:55 | 34.70707 | 139.83899 | 38025 ft | 362 kts | 263° |